• Join FlightAware (Why Join?)
  • Login
  • US Flag 
08:57PM EDT


 

Airport Tracker/Info


-or-


 

Live Flight TrackerFlight Track Log ✈ THY2480 ✈ 10-May-2013 ✈ LTBA / IST - LTAF / ADA

Flight Track Log - Related Links

Times and Time Zones

All times are in EDT time to prevent confusion due to time zone crossing. See the THY2480 flight status page for this flight to view local times or setup timezone preferences in your user account.

Time Position Orientation Groundspeed Altitude Reporting Facility
EDT Latitude Longitude Course Direction KTS MPH feet Rate Location/Type
03:26AM 40.5439 29.5884 126° Southeast  Level Estimated
03:27AM 40.4816 29.6972 127° Southeast  Level Estimated
03:28AM 40.4193 29.8058 127° Southeast  Level Estimated
03:29AM 40.3568 29.9142 127° Southeast  Level Estimated
03:30AM 40.2942 30.0224 127° Southeast  Level Estimated
03:31AM 40.2315 30.1304 127° Southeast  Level Estimated
03:32AM 40.1688 30.2382 127° Southeast  Level Estimated
03:33AM 40.1059 30.3458 127° Southeast  Level Estimated
03:34AM 40.0429 30.4532 127° Southeast  Level Estimated
03:35AM 39.9799 30.5604 127° Southeast  Level Estimated
03:36AM 39.9167 30.6674 128° Southeast  Level Estimated
03:37AM 39.8534 30.7742 128° Southeast  Level Estimated
03:38AM 39.7901 30.8808 128° Southeast  Level Estimated
03:39AM 39.7266 30.9872 128° Southeast  Level Estimated
03:40AM 39.6630 31.0935 128° Southeast  Level Estimated
03:41AM 39.5994 31.1995 128° Southeast  Level Estimated
03:42AM 39.5356 31.3053 128° Southeast  Level Estimated
03:43AM 39.4718 31.4109 128° Southeast  Level Estimated
03:44AM 39.4078 31.5164 128° Southeast  Level Estimated
03:45AM 39.3438 31.6216 128° Southeast  Level Estimated
03:46AM 39.2797 31.7267 128° Southeast  Level Estimated
03:47AM 39.2154 31.8316 128° Southeast  Level Estimated
03:48AM 39.1511 31.9362 128° Southeast  Level Estimated
03:49AM 39.0867 32.0407 128° Southeast  Level Estimated
03:50AM 39.0222 32.1450 129° Southeast  Level Estimated
03:51AM 38.9576 32.2491 129° Southeast  Level Estimated
03:52AM 38.8929 32.3530 129° Southeast  Level Estimated
03:53AM 38.8281 32.4567 129° Southeast  Level Estimated
03:54AM 38.7632 32.5602 129° Southeast  Level Estimated
03:55AM 38.6983 32.6636 129° Southeast  Level Estimated
03:56AM 38.6332 32.7667 129° Southeast  Level Estimated
03:57AM 38.5681 32.8697 129° Southeast  Level Estimated
03:58AM 38.5028 32.9725 129° Southeast  Level Estimated
03:59AM 38.4375 33.0751 129° Southeast  Level Estimated
04:00AM 38.3721 33.1775 129° Southeast  Level Estimated
04:01AM 38.3065 33.2797 129° Southeast  Level Estimated
04:02AM 38.2410 33.3817 129° Southeast  Level Estimated
04:03AM 38.1753 33.4836 129° Southeast  Level Estimated
04:04AM 38.1095 33.5853 129° Southeast  Level Estimated
04:05AM 38.0436 33.6868 129° Southeast  Level Estimated
04:06AM 37.9777 33.7881 130° Southeast  Level Estimated
04:07AM 37.9117 33.8892 130° Southeast  Level Estimated
04:08AM 37.8455 33.9901 130° Southeast  Level Estimated
04:09AM 37.7793 34.0909 130° Southeast  Level Estimated
04:10AM 37.7130 34.1915 130° Southeast  Level Estimated
04:11AM 37.6467 34.2919 130° Southeast  Level Estimated
04:12AM 37.5802 34.3921 130° Southeast  Level Estimated
04:13AM 37.5136 34.4921 130° Southeast  Level Estimated
04:14AM 37.4470 34.5920 130° Southeast  Level Estimated
04:15AM 37.3803 34.6917 130° Southeast  Level Estimated
04:16AM 37.3135 34.7912 130° Southeast  Level Estimated
04:17AM 37.2466 34.8905 130° Southeast  Level Estimated
04:18AM 37.1797 34.9897 130° Southeast  Level Estimated
04:19AM 37.1126 35.0886 130° Southeast  Level Estimated
04:20AM 37.0455 35.1874 130° Southeast  Level Estimated
04:21AM 36.9822 35.2804 130° Southeast  Level Estimated
04:22AM 36.9822 35.2804 202° Southwest  Level Estimated
04:23AM 36.9822 35.2804 202° Southwest  Level Estimated
04:24AM 36.9822 35.2804 202° Southwest  Level Estimated
04:25AM 36.9822 35.2804 202° Southwest  Level Estimated
04:26AM 36.9822 35.2804 202° Southwest  Level Estimated
04:27AM 36.9822 35.2804 202° Southwest  Level Estimated
04:28AM 36.9822 35.2804 202° Southwest  Level Estimated
04:29AM 36.9822 35.2804 202° Southwest  Level Estimated
04:30AM 36.9822 35.2804 202° Southwest  Level Estimated
04:31AM 36.9822 35.2804 202° Southwest  Level Estimated
04:32AM 36.9822 35.2804 202° Southwest  Level Estimated
04:33AM 36.9822 35.2804 202° Southwest  Level Estimated
04:34AM 36.9822 35.2804 202° Southwest  Level Estimated
04:35AM 36.9822 35.2804 202° Southwest  Level Estimated
04:36AM 36.9822 35.2804 202° Southwest  Level Estimated